createdAt,value
2022-09-28T00:01:36.472Z,99.90
2022-09-28T00:04:03.301Z,99.90
2022-09-28T00:06:30.588Z,99.90
2022-09-28T00:08:57.842Z,99.90
2022-09-28T00:11:28.204Z,99.90
2022-09-28T00:13:57.702Z,99.90
2022-09-28T00:16:29.445Z,99.90
2022-09-28T00:18:56.298Z,99.90
2022-09-28T00:21:30.618Z,99.90
2022-09-28T00:24:18.943Z,99.90
2022-09-28T00:26:55.603Z,99.90
2022-09-28T00:29:32.899Z,99.90
2022-09-28T00:32:08.034Z,99.90
2022-09-28T00:34:37.060Z,99.90
2022-09-28T00:37:04.958Z,99.90
2022-09-28T00:39:31.892Z,99.90
2022-09-28T00:41:58.828Z,99.90
2022-09-28T00:44:25.590Z,99.90
2022-09-28T00:46:53.420Z,99.90
2022-09-28T00:49:21.458Z,99.90
2022-09-28T00:51:48.364Z,99.90
2022-09-28T00:54:15.367Z,99.90
2022-09-28T00:56:43.199Z,99.90
2022-09-28T00:59:09.981Z,99.90
2022-09-28T01:01:36.929Z,99.90
2022-09-28T01:04:04.928Z,99.90
2022-09-28T01:06:33.743Z,99.90
2022-09-28T01:09:04.626Z,99.90
2022-09-28T01:11:36.315Z,99.90
2022-09-28T01:14:03.715Z,99.90
2022-09-28T01:16:57.968Z,99.90
2022-09-28T01:20:16.944Z,99.90
2022-09-28T01:23:25.453Z,99.90
2022-09-28T01:26:29.511Z,99.90
2022-09-28T01:29:25.382Z,99.90
2022-09-28T01:31:56.724Z,99.90
2022-09-28T01:34:35.675Z,99.90
2022-09-28T01:37:02.695Z,99.90
2022-09-28T01:39:34.930Z,99.90
2022-09-28T01:42:05.150Z,99.90
2022-09-28T01:44:32.281Z,99.90
2022-09-28T01:47:03.511Z,99.90
2022-09-28T01:49:36.763Z,99.90
2022-09-28T01:52:21.329Z,99.90
2022-09-28T01:55:08.438Z,99.90
2022-09-28T01:57:43.115Z,99.90
2022-09-28T02:00:11.870Z,99.90
2022-09-28T02:03:01.807Z,99.90
2022-09-28T02:05:37.193Z,99.90
2022-09-28T02:08:15.235Z,99.90
2022-09-28T02:10:48.984Z,99.90
2022-09-28T02:13:18.832Z,99.90
2022-09-28T02:15:51.320Z,99.90
2022-09-28T02:18:18.051Z,99.90
2022-09-28T02:20:49.275Z,99.90
2022-09-28T02:23:16.134Z,99.90
2022-09-28T02:25:52.703Z,99.90
2022-09-28T02:28:19.362Z,99.90
2022-09-28T02:30:46.067Z,99.90
2022-09-28T02:33:25.265Z,99.90
2022-09-28T02:35:52.101Z,99.90
2022-09-28T02:38:18.799Z,99.90
2022-09-28T02:40:50.556Z,99.90
2022-09-28T02:43:36.030Z,99.90
2022-09-28T02:46:28.517Z,99.90
2022-09-28T02:49:17.448Z,99.90
2022-09-28T02:51:52.859Z,99.90
2022-09-28T02:54:48.455Z,99.90
2022-09-28T02:57:44.074Z,99.90
2022-09-28T03:00:23.502Z,99.90
2022-09-28T03:02:59.346Z,99.90
2022-09-28T03:05:48.625Z,99.90
2022-09-28T03:08:23.111Z,99.90
2022-09-28T03:10:57.015Z,99.90
2022-09-28T03:13:23.824Z,99.90
2022-09-28T03:15:50.692Z,99.90
2022-09-28T03:18:17.599Z,99.90
2022-09-28T03:20:44.508Z,99.90
2022-09-28T03:23:26.369Z,99.90
2022-09-28T03:25:53.272Z,99.90
2022-09-28T03:28:21.583Z,99.90
2022-09-28T03:30:49.355Z,99.90
2022-09-28T03:33:16.114Z,99.90
2022-09-28T03:35:44.754Z,99.90
2022-09-28T03:38:11.416Z,99.90
2022-09-28T03:40:38.103Z,99.90
2022-09-28T03:43:04.821Z,99.90
2022-09-28T03:45:31.629Z,99.90
2022-09-28T03:47:58.356Z,99.90
2022-09-28T03:50:24.991Z,99.90
2022-09-28T03:52:51.681Z,99.90
2022-09-28T03:55:18.479Z,99.90
2022-09-28T03:57:45.212Z,99.90
2022-09-28T04:00:12.905Z,99.90
2022-09-28T04:02:40.006Z,99.90
2022-09-28T04:05:06.819Z,99.90
2022-09-28T04:07:33.487Z,99.90
2022-09-28T04:10:00.193Z,99.90
2022-09-28T04:12:26.901Z,99.90
2022-09-28T04:14:53.668Z,99.90
2022-09-28T04:17:20.371Z,99.90
2022-09-28T04:19:47.444Z,99.90
2022-09-28T04:22:14.225Z,99.90
2022-09-28T04:24:43.482Z,99.90
2022-09-28T04:27:29.276Z,99.90
2022-09-28T04:29:55.903Z,99.90
2022-09-28T04:32:22.645Z,99.90
2022-09-28T04:34:49.464Z,99.90
2022-09-28T04:37:16.152Z,99.90
2022-09-28T04:39:47.491Z,99.90
2022-09-28T04:42:16.012Z,99.90
2022-09-28T04:44:42.692Z,99.90
2022-09-28T04:47:09.422Z,99.90
2022-09-28T04:49:38.281Z,99.90
2022-09-28T04:52:05.507Z,99.90
2022-09-28T04:54:32.216Z,99.90
2022-09-28T04:56:59.222Z,99.90
2022-09-28T04:59:26.177Z,99.90
2022-09-28T05:01:54.170Z,99.90
2022-09-28T05:04:25.580Z,99.90
2022-09-28T05:06:52.787Z,99.90
2022-09-28T05:09:19.438Z,99.90
2022-09-28T05:11:46.194Z,99.90
2022-09-28T05:14:14.106Z,99.90
2022-09-28T05:16:40.816Z,99.90
2022-09-28T05:19:07.570Z,99.90
2022-09-28T05:21:35.545Z,99.90
2022-09-28T05:24:07.245Z,99.90
2022-09-28T05:26:34.592Z,99.90
2022-09-28T05:29:01.782Z,99.90
2022-09-28T05:31:28.871Z,99.90
2022-09-28T05:33:55.615Z,99.90
2022-09-28T05:36:22.687Z,99.90
2022-09-28T05:38:49.655Z,99.90
2022-09-28T05:41:16.835Z,99.90
2022-09-28T05:43:45.652Z,99.90
2022-09-28T05:46:12.312Z,99.90
2022-09-28T05:48:39.546Z,99.90
2022-09-28T05:51:06.675Z,99.90
2022-09-28T05:53:33.525Z,99.90
2022-09-28T05:56:00.410Z,99.90
2022-09-28T05:58:28.347Z,99.90
2022-09-28T06:00:56.150Z,99.90
2022-09-28T06:03:23.317Z,99.90
2022-09-28T06:05:50.419Z,99.90
2022-09-28T06:08:17.228Z,99.90
2022-09-28T06:10:44.020Z,99.90
2022-09-28T06:13:12.168Z,99.90
2022-09-28T06:15:39.216Z,99.90
2022-09-28T06:18:09.722Z,99.90
2022-09-28T06:20:37.868Z,99.90
2022-09-28T06:23:05.092Z,99.90
2022-09-28T06:25:32.336Z,99.90
2022-09-28T06:28:00.545Z,99.90
2022-09-28T06:30:27.858Z,99.90
2022-09-28T06:32:55.743Z,99.90
2022-09-28T06:35:23.317Z,99.90
2022-09-28T06:37:50.642Z,99.90
2022-09-28T06:40:17.495Z,99.90
2022-09-28T06:42:44.517Z,99.90
2022-09-28T06:45:11.399Z,99.90
2022-09-28T06:47:38.138Z,99.90
2022-09-28T06:50:13.544Z,99.90
2022-09-28T06:52:40.189Z,99.90
2022-09-28T06:55:08.120Z,99.90
2022-09-28T06:57:35.180Z,99.90
2022-09-28T07:00:03.568Z,99.90
2022-09-28T07:02:31.399Z,99.90
2022-09-28T07:04:59.030Z,99.90
2022-09-28T07:07:25.819Z,99.90
2022-09-28T07:09:55.655Z,99.90
2022-09-28T07:12:26.557Z,99.90
2022-09-28T07:14:57.612Z,99.90
2022-09-28T07:17:24.609Z,99.90
2022-09-28T07:19:53.643Z,99.90
2022-09-28T07:22:31.267Z,99.90
2022-09-28T07:25:05.505Z,99.90
2022-09-28T07:27:32.272Z,99.90
2022-09-28T07:30:00.784Z,99.90
2022-09-28T07:32:27.763Z,99.90
2022-09-28T07:34:58.847Z,99.90
2022-09-28T07:37:26.613Z,99.90
2022-09-28T07:40:11.883Z,99.90
2022-09-28T07:42:38.601Z,99.90
2022-09-28T07:45:07.182Z,99.90
2022-09-28T07:47:35.220Z,99.90
2022-09-28T07:50:02.328Z,99.90
2022-09-28T07:52:29.594Z,99.90
2022-09-28T07:54:56.322Z,99.90
2022-09-28T07:57:23.174Z,99.90
2022-09-28T07:59:49.994Z,99.90
2022-09-28T08:02:20.332Z,99.90
2022-09-28T08:04:48.264Z,99.90
2022-09-28T08:07:23.526Z,99.90
2022-09-28T08:09:52.085Z,99.90
2022-09-28T08:12:19.916Z,99.90
2022-09-28T08:14:47.184Z,99.90
2022-09-28T08:17:13.869Z,99.90
2022-09-28T08:19:59.384Z,99.90
2022-09-28T08:22:26.017Z,99.90
2022-09-28T08:24:52.720Z,99.90
2022-09-28T08:27:19.428Z,99.90
2022-09-28T08:29:46.253Z,99.90
2022-09-28T08:32:13.506Z,99.90
2022-09-28T08:34:40.895Z,99.90
2022-09-28T08:37:09.158Z,99.90
2022-09-28T08:39:36.426Z,99.90
2022-09-28T08:42:15.732Z,99.90
2022-09-28T08:44:47.993Z,99.90
2022-09-28T08:48:08.718Z,99.90
2022-09-28T08:50:47.555Z,99.90
2022-09-28T08:53:36.315Z,99.90
2022-09-28T08:56:04.934Z,99.90
2022-09-28T08:58:37.908Z,99.90
2022-09-28T09:01:06.651Z,99.90
2022-09-28T09:03:39.463Z,99.90
2022-09-28T09:06:28.262Z,99.90
2022-09-28T09:09:13.348Z,99.90
2022-09-28T09:11:51.126Z,99.90
2022-09-28T09:14:29.950Z,99.90
2022-09-28T09:17:44.268Z,99.90
2022-09-28T09:20:13.983Z,99.90
2022-09-28T09:22:59.917Z,99.90
2022-09-28T09:25:38.290Z,99.90
2022-09-28T09:28:32.698Z,99.90
2022-09-28T09:31:27.137Z,99.90
2022-09-28T09:34:05.721Z,99.90
2022-09-28T09:36:50.549Z,99.90
2022-09-28T09:39:45.116Z,99.90
2022-09-28T09:42:28.256Z,99.90
2022-09-28T09:45:01.667Z,99.90
2022-09-28T09:47:34.356Z,99.90
2022-09-28T09:50:19.781Z,99.90
2022-09-28T09:52:55.016Z,99.90
2022-09-28T09:55:44.143Z,99.90
2022-09-28T09:58:38.550Z,99.90
2022-09-28T10:01:10.963Z,99.90
2022-09-28T10:03:40.519Z,99.90
2022-09-28T10:06:10.846Z,99.90
2022-09-28T10:08:49.420Z,99.90
2022-09-28T10:11:31.543Z,99.90
2022-09-28T10:13:58.461Z,99.90
2022-09-28T10:16:25.276Z,99.90
2022-09-28T10:18:52.048Z,99.90
2022-09-28T10:21:20.395Z,99.90
2022-09-28T10:23:48.048Z,99.90
2022-09-28T10:26:34.463Z,99.90
2022-09-28T10:29:03.584Z,99.90
2022-09-28T10:31:54.086Z,99.90
2022-09-28T10:34:28.560Z,99.90
2022-09-28T10:37:03.235Z,99.90
2022-09-28T10:39:36.449Z,99.90
2022-09-28T10:42:06.683Z,99.90
2022-09-28T10:44:34.518Z,99.90
2022-09-28T10:47:07.973Z,99.90
2022-09-28T10:49:46.745Z,99.90
2022-09-28T10:52:30.139Z,99.90
2022-09-28T10:54:56.848Z,99.90
2022-09-28T10:57:34.220Z,99.90
2022-09-28T11:00:01.754Z,99.90
2022-09-28T11:02:35.914Z,99.90
2022-09-28T11:05:05.010Z,99.90
2022-09-28T11:07:33.007Z,99.90
2022-09-28T11:10:00.843Z,99.90
2022-09-28T11:12:29.569Z,99.90
2022-09-28T11:15:00.853Z,99.90
2022-09-28T11:17:32.680Z,99.90
2022-09-28T11:20:01.073Z,99.90
2022-09-28T11:22:30.121Z,99.90
2022-09-28T11:25:32.363Z,99.90
2022-09-28T11:28:04.443Z,99.90
2022-09-28T11:30:45.615Z,99.90
2022-09-28T11:33:19.968Z,99.90
2022-09-28T11:35:51.740Z,99.90
2022-09-28T11:38:47.440Z,99.90
2022-09-28T11:41:24.327Z,99.90
2022-09-28T11:44:32.518Z,99.90
2022-09-28T11:47:13.804Z,99.90
2022-09-28T11:50:24.173Z,99.90
2022-09-28T11:53:03.179Z,99.90
2022-09-28T11:55:40.813Z,99.90
2022-09-28T11:58:23.303Z,99.90
2022-09-28T12:00:55.221Z,99.90
2022-09-28T12:03:29.024Z,99.90
2022-09-28T12:06:05.143Z,99.90
2022-09-28T12:08:41.551Z,99.90
2022-09-28T12:11:15.907Z,99.90
2022-09-28T12:13:45.360Z,99.90
2022-09-28T12:17:03.681Z,99.90
2022-09-28T12:19:20.309Z,99.90
2022-09-28T12:21:51.636Z,99.90
2022-09-28T12:24:38.527Z,99.90
2022-09-28T12:27:09.927Z,99.90
2022-09-28T12:30:05.768Z,99.90
2022-09-28T12:32:55.376Z,99.90
2022-09-28T12:35:43.690Z,99.90
2022-09-28T12:38:36.032Z,99.90
2022-09-28T12:41:22.355Z,99.90
2022-09-28T12:43:58.213Z,99.90
2022-09-28T12:46:49.768Z,99.90
2022-09-28T12:50:36.292Z,99.90
2022-09-28T12:52:36.591Z,99.90
2022-09-28T12:55:29.724Z,99.90
2022-09-28T12:58:12.203Z,99.90
2022-09-28T13:01:01.621Z,99.90
2022-09-28T13:03:42.547Z,99.90
2022-09-28T13:06:41.249Z,99.90
2022-09-28T13:09:24.658Z,99.90
2022-09-28T13:12:10.220Z,99.90
2022-09-28T13:14:58.353Z,99.90
2022-09-28T13:17:32.932Z,99.90
2022-09-28T13:20:08.538Z,99.90
2022-09-28T13:22:44.386Z,99.90
2022-09-28T13:25:17.003Z,99.90
2022-09-28T13:27:52.957Z,99.10
2022-09-28T13:30:19.642Z,98.60
2022-09-28T13:32:46.887Z,99.00
2022-09-28T13:35:20.406Z,99.30
2022-09-28T13:37:47.735Z,98.70
2022-09-28T13:40:14.892Z,99.00
2022-09-28T13:42:44.854Z,99.90
2022-09-28T13:45:20.778Z,99.60
2022-09-28T13:48:24.555Z,99.90
2022-09-28T13:51:05.185Z,99.90
2022-09-28T13:53:56.799Z,99.90
2022-09-28T13:56:34.982Z,99.90
2022-09-28T13:59:16.809Z,99.90
2022-09-28T14:02:02.892Z,99.90
2022-09-28T14:04:51.110Z,99.90
2022-09-28T14:07:47.469Z,99.90
2022-09-28T14:10:26.058Z,99.90
2022-09-28T14:12:53.426Z,99.90
2022-09-28T14:15:29.362Z,99.90
2022-09-28T14:18:10.508Z,99.90
2022-09-28T14:20:37.313Z,99.90
2022-09-28T14:23:18.703Z,99.90
2022-09-28T14:25:46.743Z,99.90
2022-09-28T14:28:35.242Z,99.90
2022-09-28T14:31:07.813Z,99.90
2022-09-28T14:33:34.522Z,99.90
2022-09-28T14:36:04.331Z,99.90
2022-09-28T14:39:06.891Z,99.90
2022-09-28T14:41:38.106Z,99.90
2022-09-28T14:44:09.895Z,99.90
2022-09-28T14:46:44.724Z,99.90
2022-09-28T14:49:19.437Z,99.50
2022-09-28T14:51:55.874Z,99.70
2022-09-28T14:54:30.331Z,99.50
2022-09-28T14:57:09.288Z,99.90
2022-09-28T14:59:43.478Z,99.90
2022-09-28T15:02:33.072Z,99.90
2022-09-28T15:05:18.337Z,99.70
2022-09-28T15:07:48.053Z,99.70
2022-09-28T15:10:33.053Z,99.90
2022-09-28T15:13:01.982Z,99.90
2022-09-28T15:15:38.903Z,99.90
2022-09-28T15:18:35.654Z,99.90
2022-09-28T15:21:02.759Z,99.90
2022-09-28T15:23:40.407Z,99.90
2022-09-28T15:26:19.828Z,99.90
2022-09-28T15:28:46.739Z,99.90
2022-09-28T15:31:21.702Z,99.90
2022-09-28T15:34:07.291Z,99.90
2022-09-28T15:36:46.403Z,99.90
2022-09-28T15:39:13.237Z,99.90
2022-09-28T15:41:41.787Z,99.90
2022-09-28T15:44:11.268Z,99.90
2022-09-28T15:46:39.544Z,99.90
2022-09-28T15:49:07.518Z,99.90
2022-09-28T15:51:47.346Z,99.70
2022-09-28T15:54:19.841Z,99.90
2022-09-28T15:56:59.875Z,99.50
2022-09-28T15:59:27.906Z,99.60
2022-09-28T16:02:17.505Z,99.30
2022-09-28T16:05:00.891Z,98.40
2022-09-28T16:07:39.896Z,97.80
2022-09-28T16:10:12.752Z,98.30
2022-09-28T16:12:54.113Z,97.70
2022-09-28T16:15:25.226Z,97.50
2022-09-28T16:17:51.975Z,96.80
2022-09-28T16:20:38.048Z,95.80
2022-09-28T16:23:17.086Z,95.20
2022-09-28T16:25:54.010Z,94.60
2022-09-28T16:28:34.493Z,93.80
2022-09-28T16:31:14.658Z,93.10
2022-09-28T16:33:58.207Z,91.80
2022-09-28T16:36:30.080Z,91.00
2022-09-28T16:38:56.971Z,90.90
2022-09-28T16:41:26.273Z,90.80
2022-09-28T16:44:01.041Z,90.80
2022-09-28T16:46:37.361Z,90.60
2022-09-28T16:49:05.971Z,91.10
2022-09-28T16:51:33.643Z,90.00
2022-09-28T16:54:38.372Z,90.90
2022-09-28T16:57:08.108Z,91.00
2022-09-28T16:59:34.865Z,91.60
2022-09-28T17:02:01.652Z,92.40
2022-09-28T17:04:28.388Z,93.10
2022-09-28T17:06:55.479Z,93.40
2022-09-28T17:09:22.541Z,94.40
2022-09-28T17:11:55.595Z,94.60
2022-09-28T17:14:23.459Z,95.20
2022-09-28T17:17:11.569Z,95.60
2022-09-28T17:19:40.390Z,95.80
2022-09-28T17:22:08.280Z,96.20
2022-09-28T17:24:35.238Z,96.80
2022-09-28T17:27:03.267Z,97.00
2022-09-28T17:29:30.291Z,97.40
2022-09-28T17:31:57.120Z,97.70
2022-09-28T17:34:24.063Z,98.00
2022-09-28T17:36:51.086Z,98.50
2022-09-28T17:39:18.630Z,99.20
2022-09-28T17:41:45.539Z,99.70
2022-09-28T17:44:16.029Z,99.90
2022-09-28T17:46:47.589Z,99.90
2022-09-28T17:49:14.684Z,99.90
2022-09-28T17:51:41.433Z,99.90
2022-09-28T17:54:08.310Z,99.90
2022-09-28T17:56:35.427Z,99.90
2022-09-28T17:59:10.354Z,99.90
2022-09-28T18:01:39.149Z,99.90
2022-09-28T18:04:08.239Z,99.90
2022-09-28T18:06:36.184Z,99.90
2022-09-28T18:09:03.297Z,99.90
2022-09-28T18:11:31.382Z,99.90
2022-09-28T18:13:58.766Z,99.90
2022-09-28T18:16:27.877Z,99.90
2022-09-28T18:18:54.855Z,99.90
2022-09-28T18:21:22.465Z,99.90
2022-09-28T18:23:49.317Z,99.90
2022-09-28T18:26:16.859Z,99.90
2022-09-28T18:28:43.665Z,99.90
2022-09-28T18:31:13.319Z,99.90
2022-09-28T18:33:40.806Z,99.90
2022-09-28T18:36:07.777Z,99.90
2022-09-28T18:38:38.179Z,99.90
2022-09-28T18:41:15.937Z,99.90
2022-09-28T18:43:52.159Z,99.90
2022-09-28T18:46:19.242Z,99.90
2022-09-28T18:48:47.706Z,99.90
2022-09-28T18:51:14.456Z,99.90
2022-09-28T18:53:41.258Z,99.90
2022-09-28T18:56:09.474Z,99.90
2022-09-28T18:58:37.000Z,99.90
2022-09-28T19:01:33.821Z,99.90
2022-09-28T19:04:05.573Z,99.90
2022-09-28T19:06:32.721Z,99.90
2022-09-28T19:08:59.599Z,99.90
2022-09-28T19:11:26.615Z,99.90
2022-09-28T19:13:54.359Z,99.90
2022-09-28T19:16:23.279Z,99.90
2022-09-28T19:18:51.362Z,99.90
2022-09-28T19:21:18.337Z,99.90
2022-09-28T19:23:48.962Z,99.90
2022-09-28T19:26:24.577Z,99.90
2022-09-28T19:28:51.350Z,99.90
2022-09-28T19:31:18.249Z,99.90
2022-09-28T19:33:46.647Z,99.90
2022-09-28T19:36:24.082Z,99.90
2022-09-28T19:38:54.951Z,99.90
2022-09-28T19:41:44.362Z,99.90
2022-09-28T19:44:15.735Z,99.90
2022-09-28T19:46:42.649Z,99.90
2022-09-28T19:49:14.953Z,99.90
2022-09-28T19:52:01.735Z,99.90
2022-09-28T19:54:36.333Z,99.90
2022-09-28T19:57:08.534Z,99.90
2022-09-28T19:59:36.711Z,99.90
2022-09-28T20:02:04.855Z,99.90
2022-09-28T20:04:32.077Z,99.90
2022-09-28T20:06:59.048Z,99.90
2022-09-28T20:09:25.862Z,99.90
2022-09-28T20:11:53.257Z,99.90
2022-09-28T20:14:22.381Z,99.90
2022-09-28T20:16:51.268Z,99.90
2022-09-28T20:19:21.072Z,99.90
2022-09-28T20:21:51.022Z,99.90
2022-09-28T20:24:17.877Z,99.90
2022-09-28T20:26:45.889Z,99.90
2022-09-28T20:29:12.868Z,99.90
2022-09-28T20:31:39.675Z,99.90
2022-09-28T20:34:06.646Z,99.90
2022-09-28T20:36:33.476Z,99.90
2022-09-28T20:39:03.588Z,99.90
2022-09-28T20:41:34.788Z,99.90
2022-09-28T20:44:05.304Z,99.90
2022-09-28T20:46:33.707Z,99.90
2022-09-28T20:49:00.746Z,99.90
2022-09-28T20:51:27.635Z,99.90
2022-09-28T20:53:55.971Z,99.90
2022-09-28T20:56:23.424Z,99.90
2022-09-28T20:58:51.298Z,99.90
2022-09-28T21:01:22.917Z,99.90
2022-09-28T21:03:53.651Z,99.90
2022-09-28T21:06:21.882Z,99.90
2022-09-28T21:08:49.556Z,99.90
2022-09-28T21:11:17.804Z,99.90
2022-09-28T21:13:44.568Z,99.90
2022-09-28T21:16:12.115Z,99.90
2022-09-28T21:18:41.956Z,99.90
2022-09-28T21:21:10.035Z,99.90
2022-09-28T21:23:36.869Z,99.90
2022-09-28T21:26:04.464Z,99.90
2022-09-28T21:28:31.250Z,99.90
2022-09-28T21:30:58.021Z,99.90
2022-09-28T21:33:24.790Z,99.90
2022-09-28T21:35:51.516Z,99.90
2022-09-28T21:38:18.198Z,99.90
2022-09-28T21:40:45.270Z,99.90
2022-09-28T21:43:12.521Z,99.90
2022-09-28T21:45:39.843Z,99.90
2022-09-28T21:48:06.642Z,99.90
2022-09-28T21:50:33.580Z,99.90
2022-09-28T21:53:01.979Z,99.90
2022-09-28T21:55:28.855Z,99.90
2022-09-28T21:57:55.609Z,99.90
2022-09-28T22:00:25.202Z,99.90
2022-09-28T22:02:52.517Z,99.90
2022-09-28T22:05:19.665Z,99.90
2022-09-28T22:07:46.419Z,99.90
2022-09-28T22:10:13.876Z,99.90
2022-09-28T22:12:40.851Z,99.90
2022-09-28T22:15:08.095Z,99.90
2022-09-28T22:17:35.151Z,99.90
2022-09-28T22:20:01.953Z,99.90
2022-09-28T22:22:29.338Z,99.90
2022-09-28T22:24:56.410Z,99.90
2022-09-28T22:27:24.080Z,99.90
2022-09-28T22:29:51.243Z,99.90
2022-09-28T22:32:17.974Z,99.90
2022-09-28T22:34:44.656Z,99.90
2022-09-28T22:37:11.349Z,99.90
2022-09-28T22:39:40.965Z,99.90
2022-09-28T22:42:08.284Z,99.90
2022-09-28T22:44:35.923Z,99.90
2022-09-28T22:47:03.345Z,99.90
2022-09-28T22:49:31.150Z,99.90
2022-09-28T22:51:58.099Z,99.90
2022-09-28T22:54:25.249Z,99.90
2022-09-28T22:56:51.967Z,99.90
2022-09-28T22:59:18.867Z,99.90
2022-09-28T23:01:45.869Z,99.90
2022-09-28T23:04:12.735Z,99.90
2022-09-28T23:06:39.639Z,99.90
2022-09-28T23:09:06.473Z,99.90
2022-09-28T23:11:33.218Z,99.90
2022-09-28T23:14:00.547Z,99.90
2022-09-28T23:16:27.730Z,99.90
2022-09-28T23:18:55.508Z,99.90
2022-09-28T23:21:23.637Z,99.90
2022-09-28T23:23:55.273Z,99.90
2022-09-28T23:26:24.036Z,99.90
2022-09-28T23:28:51.198Z,99.90
2022-09-28T23:31:20.252Z,99.90
2022-09-28T23:33:47.170Z,99.90
2022-09-28T23:36:14.127Z,99.90
2022-09-28T23:38:41.014Z,99.90
2022-09-28T23:41:07.891Z,99.90
2022-09-28T23:43:34.954Z,99.90
2022-09-28T23:46:02.335Z,99.90
2022-09-28T23:48:29.172Z,99.90
2022-09-28T23:50:55.874Z,99.90
2022-09-28T23:53:22.588Z,99.90
2022-09-28T23:55:49.681Z,99.90
2022-09-28T23:58:16.586Z,99.90
